PRAKF SBRJ-SBSP
Flight info
| Callsign | PRAKF |
|---|---|
| Flight time | N/A |
| Altitude | 28000 |
| Route | NAXOP UZ45 IBDAL |
| Aircraft | C700/M-SBDGHM1RWXY/LB2 |
Departure
| Time | N/A |
|---|---|
| Airport | Santos Dumont Airport (SBRJ) |
Arrival
| Time | 2026-05-03 20:40 |
|---|---|
| Airport | Congonhas–Deputado Freitas Nobre Airport (SBSP) |
| Time | Latitude | Longitude | Altitude | Speed | Heading |
|---|---|---|---|---|---|
| 2026-05-03 20:15 | -23.81593 | -45.77381 | 21232 ft | 346 kts | 265° |
| 2026-05-03 20:15 | -23.81723 | -45.79971 | 20901 ft | 346 kts | 265° |
| 2026-05-03 20:15 | -23.81854 | -45.82594 | 20562 ft | 345 kts | 265° |
| 2026-05-03 20:15 | -23.81984 | -45.85214 | 20223 ft | 345 kts | 266° |
| 2026-05-03 20:16 | -23.82071 | -45.86981 | 19997 ft | 345 kts | 266° |
| 2026-05-03 20:16 | -23.82242 | -45.90447 | 19552 ft | 345 kts | 266° |
| 2026-05-03 20:16 | -23.82328 | -45.92194 | 19325 ft | 345 kts | 266° |
| 2026-05-03 20:16 | -23.82457 | -45.94812 | 18990 ft | 346 kts | 266° |
| 2026-05-03 20:17 | -23.82585 | -45.97438 | 18653 ft | 347 kts | 266° |
| 2026-05-03 20:17 | -23.82713 | -46.00075 | 18289 ft | 347 kts | 266° |
| 2026-05-03 20:17 | -23.82840 | -46.02698 | 17942 ft | 345 kts | 266° |
| 2026-05-03 20:17 | -23.82967 | -46.05314 | 17625 ft | 343 kts | 266° |
| 2026-05-03 20:18 | -23.83091 | -46.07876 | 17663 ft | 339 kts | 266° |
| 2026-05-03 20:18 | -23.83216 | -46.10475 | 17672 ft | 345 kts | 266° |
| 2026-05-03 20:18 | -23.83340 | -46.13093 | 17673 ft | 341 kts | 266° |
| 2026-05-03 20:18 | -23.83459 | -46.15613 | 17667 ft | 324 kts | 266° |
| 2026-05-03 20:19 | -23.83573 | -46.18027 | 17672 ft | 313 kts | 266° |
| 2026-05-03 20:19 | -23.83685 | -46.20406 | 17668 ft | 315 kts | 267° |
| 2026-05-03 20:19 | -23.83408 | -46.22793 | 17673 ft | 322 kts | 287° |
| 2026-05-03 20:19 | -23.82277 | -46.24918 | 17685 ft | 330 kts | 308° |
| 2026-05-03 20:20 | -23.80455 | -46.26416 | 17675 ft | 338 kts | 330° |
| 2026-05-03 20:20 | -23.78113 | -46.27021 | 17680 ft | 349 kts | 355° |
| 2026-05-03 20:20 | -23.75719 | -46.26497 | 17685 ft | 360 kts | 20° |
| 2026-05-03 20:20 | -23.73745 | -46.24927 | 17692 ft | 368 kts | 47° |
| 2026-05-03 20:21 | -23.72486 | -46.22405 | 17688 ft | 373 kts | 75° |
| 2026-05-03 20:21 | -23.72139 | -46.19602 | 17693 ft | 374 kts | 88° |
| 2026-05-03 20:21 | -23.72078 | -46.16801 | 17688 ft | 373 kts | 91° |
| 2026-05-03 20:21 | -23.72035 | -46.13944 | 17673 ft | 372 kts | 89° |
| 2026-05-03 20:22 | -23.71879 | -46.11133 | 17689 ft | 371 kts | 86° |
| 2026-05-03 20:22 | -23.71697 | -46.08321 | 17690 ft | 370 kts | 88° |
| 2026-05-03 20:22 | -23.71568 | -46.05514 | 17689 ft | 371 kts | 89° |
| 2026-05-03 20:22 | -23.71532 | -46.02732 | 17679 ft | 371 kts | 98° |
| 2026-05-03 20:23 | -23.72335 | -46.00108 | 17681 ft | 363 kts | 126° |
| 2026-05-03 20:23 | -23.74067 | -45.98186 | 17694 ft | 353 kts | 153° |
| 2026-05-03 20:23 | -23.76331 | -45.97343 | 17685 ft | 340 kts | 180° |
| 2026-05-03 20:23 | -23.78626 | -45.97662 | 17686 ft | 330 kts | 201° |
| 2026-05-03 20:24 | -23.80632 | -45.98799 | 17685 ft | 324 kts | 221° |
| 2026-05-03 20:24 | -23.82121 | -46.00612 | 17689 ft | 320 kts | 240° |
| 2026-05-03 20:24 | -23.82907 | -46.02866 | 17679 ft | 319 kts | 260° |
| 2026-05-03 20:24 | -23.83079 | -46.05288 | 17680 ft | 319 kts | 266° |
| 2026-05-03 20:25 | -23.83184 | -46.07707 | 17688 ft | 319 kts | 266° |
| 2026-05-03 20:25 | -23.83292 | -46.10124 | 17688 ft | 318 kts | 266° |
| 2026-05-03 20:25 | -23.83405 | -46.12542 | 17682 ft | 317 kts | 266° |
| 2026-05-03 20:25 | -23.83517 | -46.14946 | 17686 ft | 317 kts | 266° |
| 2026-05-03 20:26 | -23.83627 | -46.17345 | 17685 ft | 317 kts | 266° |
| 2026-05-03 20:26 | -23.83736 | -46.19730 | 17682 ft | 318 kts | 266° |
| 2026-05-03 20:26 | -23.83849 | -46.22179 | 17593 ft | 320 kts | 266° |
| 2026-05-03 20:26 | -23.83961 | -46.24596 | 17208 ft | 325 kts | 266° |
| 2026-05-03 20:27 | -23.84074 | -46.27078 | 16788 ft | 320 kts | 266° |
| 2026-05-03 20:27 | -23.84181 | -46.29465 | 16379 ft | 315 kts | 266° |
| 2026-05-03 20:27 | -23.84289 | -46.31853 | 15976 ft | 313 kts | 266° |
| 2026-05-03 20:27 | -23.84396 | -46.34223 | 15564 ft | 312 kts | 266° |
| 2026-05-03 20:28 | -23.84503 | -46.36595 | 15168 ft | 314 kts | 266° |
| 2026-05-03 20:28 | -23.84610 | -46.38992 | 14750 ft | 315 kts | 266° |
| 2026-05-03 20:28 | -23.84716 | -46.41364 | 14347 ft | 309 kts | 266° |
| 2026-05-03 20:28 | -23.84818 | -46.43673 | 13946 ft | 298 kts | 266° |
| 2026-05-03 20:29 | -23.84917 | -46.45903 | 13553 ft | 289 kts | 266° |
| 2026-05-03 20:29 | -23.85013 | -46.48061 | 13189 ft | 280 kts | 266° |
| 2026-05-03 20:29 | -23.85105 | -46.50154 | 12837 ft | 272 kts | 266° |
| 2026-05-03 20:29 | -23.85195 | -46.52195 | 12486 ft | 266 kts | 266° |
| 2026-05-03 20:30 | -23.85282 | -46.54196 | 12152 ft | 260 kts | 267° |
| 2026-05-03 20:30 | -23.85367 | -46.56125 | 11853 ft | 255 kts | 267° |
| 2026-05-03 20:30 | -23.85451 | -46.58048 | 11532 ft | 251 kts | 267° |
| 2026-05-03 20:30 | -23.85370 | -46.59941 | 11210 ft | 249 kts | 280° |
| 2026-05-03 20:31 | -23.84844 | -46.61758 | 10883 ft | 250 kts | 294° |
| 2026-05-03 20:31 | -23.83918 | -46.63369 | 10559 ft | 252 kts | 308° |
| 2026-05-03 20:31 | -23.82642 | -46.64679 | 10229 ft | 254 kts | 322° |
| 2026-05-03 20:31 | -23.81151 | -46.65712 | 9878 ft | 253 kts | 326° |
| 2026-05-03 20:32 | -23.79675 | -46.66739 | 9540 ft | 250 kts | 325° |
| 2026-05-03 20:32 | -23.78224 | -46.67758 | 9212 ft | 247 kts | 326° |
| 2026-05-03 20:32 | -23.76790 | -46.68751 | 9126 ft | 239 kts | 326° |
| 2026-05-03 20:32 | -23.75380 | -46.69729 | 9129 ft | 244 kts | 326° |
| 2026-05-03 20:33 | -23.73921 | -46.70743 | 9135 ft | 250 kts | 326° |
| 2026-05-03 20:33 | -23.72462 | -46.71754 | 9098 ft | 252 kts | 326° |
| 2026-05-03 20:33 | -23.70961 | -46.72795 | 8871 ft | 253 kts | 326° |
| 2026-05-03 20:33 | -23.69477 | -46.73825 | 8597 ft | 251 kts | 327° |
| 2026-05-03 20:34 | -23.68003 | -46.74845 | 8306 ft | 249 kts | 327° |
| 2026-05-03 20:34 | -23.66548 | -46.75854 | 8023 ft | 247 kts | 327° |
| 2026-05-03 20:34 | -23.65099 | -46.76858 | 7736 ft | 247 kts | 327° |
| 2026-05-03 20:34 | -23.63649 | -46.77863 | 7449 ft | 247 kts | 328° |
| 2026-05-03 20:35 | -23.62199 | -46.78868 | 7160 ft | 247 kts | 328° |
| 2026-05-03 20:35 | -23.60751 | -46.79869 | 6877 ft | 247 kts | 329° |
| 2026-05-03 20:35 | -23.59193 | -46.80607 | 6583 ft | 242 kts | 349° |
| 2026-05-03 20:35 | -23.57541 | -46.80716 | 6293 ft | 237 kts | 8° |
| 2026-05-03 20:36 | -23.55971 | -46.80248 | 6011 ft | 231 kts | 28° |
| 2026-05-03 20:36 | -23.54658 | -46.79295 | 5747 ft | 226 kts | 46° |
| 2026-05-03 20:36 | -23.53701 | -46.77975 | 5445 ft | 220 kts | 63° |
| 2026-05-03 20:36 | -23.53152 | -46.76427 | 5194 ft | 215 kts | 81° |
| 2026-05-03 20:37 | -23.53055 | -46.74837 | 4947 ft | 211 kts | 98° |
| 2026-05-03 20:37 | -23.53381 | -46.73303 | 4692 ft | 207 kts | 114° |
| 2026-05-03 20:37 | -23.54107 | -46.71941 | 4487 ft | 203 kts | 131° |
| 2026-05-03 20:37 | -23.55133 | -46.70925 | 4247 ft | 202 kts | 143° |
| 2026-05-03 20:38 | -23.56287 | -46.70071 | 4040 ft | 189 kts | 146° |
| 2026-05-03 20:38 | -23.57331 | -46.69343 | 3809 ft | 176 kts | 148° |
| 2026-05-03 20:38 | -23.58342 | -46.68650 | 3603 ft | 160 kts | 147° |
| 2026-05-03 20:38 | -23.59203 | -46.68048 | 3374 ft | 137 kts | 147° |
| 2026-05-03 20:39 | -23.59957 | -46.67521 | 3059 ft | 121 kts | 146° |
| 2026-05-03 20:39 | -23.60715 | -46.66993 | 2936 ft | 129 kts | 145° |
| 2026-05-03 20:39 | -23.61450 | -46.66491 | 2790 ft | 122 kts | 144° |
| 2026-05-03 20:39 | -23.62154 | -46.66010 | 2621 ft | 114 kts | 143° |
| 2026-05-03 20:40 | -23.62717 | -46.65600 | 2617 ft | 51 kts | 149° |
| 2026-05-03 20:40 | -23.62852 | -46.65509 | 2621 ft | 20 kts | 146° |
| 2026-05-03 20:40 | -23.62875 | -46.65461 | 2623 ft | 5 kts | 61° |
| 2026-05-03 20:40 | -23.62855 | -46.65417 | 2623 ft | 8 kts | 66° |
| 2026-05-03 20:41 | -23.62820 | -46.65348 | 2622 ft | 13 kts | 51° |
| 2026-05-03 20:41 | -23.62770 | -46.65272 | 2623 ft | 12 kts | 63° |
| 2026-05-03 20:41 | -23.62730 | -46.65258 | 2623 ft | 6 kts | 329° |
| 2026-05-03 20:41 | -23.62676 | -46.65295 | 2622 ft | 12 kts | 327° |
| 2026-05-03 20:42 | -23.62590 | -46.65350 | 2621 ft | 17 kts | 329° |
| 2026-05-03 20:42 | -23.62478 | -46.65429 | 2618 ft | 22 kts | 327° |
| 2026-05-03 20:42 | -23.62332 | -46.65528 | 2616 ft | 27 kts | 326° |
| 2026-05-03 20:42 | -23.62206 | -46.65619 | 2611 ft | 17 kts | 331° |
| 2026-05-03 20:43 | -23.62170 | -46.65603 | 2611 ft | 6 kts | 53° |
| 2026-05-03 20:43 | -23.62169 | -46.65602 | 2611 ft | 0 kts | 53° |